Terminal Aerodrome Forecast
Issued by NWS

Home | Current Version | Previous Version | Text Only | Print | Product List | Glossary On
Versions: 1 2 3 4 5 6 7 8 9 10 11 12 13 14
000
FTUS46 KSEW 240500
TAFBLI
TAF
KBLI 240523Z 2406/2506 17005KT P6SM SCT120 BKN200
     FM241100 18010KT P6SM OVC028
     FM242000 18010KT P6SM BKN045=

USA.gov is the U.S. government's official web portal to all federal, state and local government web resources and services.